sensor_id;sensor_type;location;lat;lon;timestamp;P1;durP1;ratioP1;P2;durP2;ratioP2
81930;SDS011;71395;43.488;1.472;2024-03-02T00:00:26;9.88;;;5.40;;
81930;SDS011;71395;43.488;1.472;2024-03-02T00:02:52;11.07;;;6.28;;
81930;SDS011;71395;43.488;1.472;2024-03-02T00:05:18;12.80;;;5.97;;
81930;SDS011;71395;43.488;1.472;2024-03-02T00:07:46;10.07;;;5.53;;
81930;SDS011;71395;43.488;1.472;2024-03-02T00:10:19;11.73;;;5.68;;
81930;SDS011;71395;43.488;1.472;2024-03-02T00:12:50;13.57;;;6.13;;
81930;SDS011;71395;43.488;1.472;2024-03-02T00:17:44;9.25;;;5.28;;
81930;SDS011;71395;43.488;1.472;2024-03-02T00:20:11;11.15;;;5.50;;
81930;SDS011;71395;43.488;1.472;2024-03-02T00:22:43;12.40;;;5.30;;
81930;SDS011;71395;43.488;1.472;2024-03-02T00:25:09;13.80;;;5.63;;
81930;SDS011;71395;43.488;1.472;2024-03-02T00:27:35;10.40;;;5.25;;
81930;SDS011;71395;43.488;1.472;2024-03-02T00:30:01;10.77;;;5.05;;
81930;SDS011;71395;43.488;1.472;2024-03-02T00:32:51;9.50;;;5.00;;
81930;SDS011;71395;43.488;1.472;2024-03-02T00:35:18;11.82;;;5.63;;
81930;SDS011;71395;43.488;1.472;2024-03-02T00:37:48;10.45;;;5.45;;
81930;SDS011;71395;43.488;1.472;2024-03-02T00:40:13;9.73;;;5.40;;
81930;SDS011;71395;43.488;1.472;2024-03-02T00:42:40;12.88;;;5.57;;
81930;SDS011;71395;43.488;1.472;2024-03-02T00:45:08;9.30;;;4.90;;
81930;SDS011;71395;43.488;1.472;2024-03-02T00:47:40;9.40;;;5.57;;
81930;SDS011;71395;43.488;1.472;2024-03-02T00:50:06;9.77;;;5.13;;
81930;SDS011;71395;43.488;1.472;2024-03-02T00:52:33;12.35;;;6.00;;
81930;SDS011;71395;43.488;1.472;2024-03-02T00:54:59;14.75;;;5.85;;
81930;SDS011;71395;43.488;1.472;2024-03-02T00:57:25;11.90;;;5.88;;
81930;SDS011;71395;43.488;1.472;2024-03-02T00:59:52;12.57;;;6.40;;
81930;SDS011;71395;43.488;1.472;2024-03-02T01:02:18;11.70;;;5.70;;
81930;SDS011;71395;43.488;1.472;2024-03-02T01:04:45;12.32;;;6.07;;
81930;SDS011;71395;43.488;1.472;2024-03-02T01:07:11;10.48;;;5.70;;
81930;SDS011;71395;43.488;1.472;2024-03-02T01:09:36;11.25;;;5.75;;
81930;SDS011;71395;43.488;1.472;2024-03-02T01:12:02;9.98;;;5.38;;
81930;SDS011;71395;43.488;1.472;2024-03-02T01:14:28;10.45;;;5.30;;
81930;SDS011;71395;43.488;1.472;2024-03-02T01:16:54;9.50;;;5.13;;
81930;SDS011;71395;43.488;1.472;2024-03-02T01:19:20;10.65;;;4.55;;
81930;SDS011;71395;43.488;1.472;2024-03-02T01:21:46;9.15;;;4.68;;
81930;SDS011;71395;43.488;1.472;2024-03-02T01:24:11;8.77;;;4.30;;
81930;SDS011;71395;43.488;1.472;2024-03-02T01:26:38;9.15;;;4.55;;
81930;SDS011;71395;43.488;1.472;2024-03-02T01:29:04;9.38;;;4.20;;
81930;SDS011;71395;43.488;1.472;2024-03-02T01:31:29;9.63;;;4.88;;
81930;SDS011;71395;43.488;1.472;2024-03-02T01:33:55;7.57;;;4.38;;
81930;SDS011;71395;43.488;1.472;2024-03-02T01:36:21;8.73;;;4.60;;
81930;SDS011;71395;43.488;1.472;2024-03-02T01:38:47;9.55;;;3.90;;
81930;SDS011;71395;43.488;1.472;2024-03-02T01:41:12;7.57;;;4.15;;
81930;SDS011;71395;43.488;1.472;2024-03-02T01:43:38;6.72;;;3.92;;
81930;SDS011;71395;43.488;1.472;2024-03-02T01:46:04;9.82;;;4.03;;
81930;SDS011;71395;43.488;1.472;2024-03-02T01:48:30;7.32;;;4.00;;
81930;SDS011;71395;43.488;1.472;2024-03-02T01:50:55;7.25;;;4.53;;
81930;SDS011;71395;43.488;1.472;2024-03-02T01:53:21;6.70;;;4.05;;
81930;SDS011;71395;43.488;1.472;2024-03-02T01:55:47;7.50;;;3.60;;
81930;SDS011;71395;43.488;1.472;2024-03-02T01:58:13;7.50;;;3.80;;
81930;SDS011;71395;43.488;1.472;2024-03-02T02:00:39;7.72;;;3.95;;
81930;SDS011;71395;43.488;1.472;2024-03-02T02:03:04;8.63;;;4.05;;
81930;SDS011;71395;43.488;1.472;2024-03-02T02:05:31;6.50;;;3.70;;
81930;SDS011;71395;43.488;1.472;2024-03-02T02:07:58;6.72;;;3.90;;
81930;SDS011;71395;43.488;1.472;2024-03-02T02:10:24;8.50;;;3.90;;
81930;SDS011;71395;43.488;1.472;2024-03-02T02:12:50;9.55;;;4.20;;
81930;SDS011;71395;43.488;1.472;2024-03-02T02:15:25;6.25;;;3.72;;
81930;SDS011;71395;43.488;1.472;2024-03-02T02:17:52;6.47;;;3.63;;
81930;SDS011;71395;43.488;1.472;2024-03-02T02:20:22;8.68;;;4.18;;
81930;SDS011;71395;43.488;1.472;2024-03-02T02:22:59;7.65;;;4.00;;
81930;SDS011;71395;43.488;1.472;2024-03-02T02:25:26;8.25;;;3.42;;
81930;SDS011;71395;43.488;1.472;2024-03-02T02:27:53;7.10;;;4.00;;
81930;SDS011;71395;43.488;1.472;2024-03-02T02:30:20;7.45;;;3.92;;
81930;SDS011;71395;43.488;1.472;2024-03-02T02:32:52;8.25;;;3.95;;
81930;SDS011;71395;43.488;1.472;2024-03-02T02:35:18;7.30;;;3.75;;
81930;SDS011;71395;43.488;1.472;2024-03-02T02:37:47;8.27;;;3.72;;
81930;SDS011;71395;43.488;1.472;2024-03-02T02:40:14;6.03;;;3.67;;
81930;SDS011;71395;43.488;1.472;2024-03-02T02:42:40;7.95;;;3.47;;
81930;SDS011;71395;43.488;1.472;2024-03-02T02:45:06;7.93;;;3.95;;
81930;SDS011;71395;43.488;1.472;2024-03-02T02:47:32;7.68;;;3.22;;
81930;SDS011;71395;43.488;1.472;2024-03-02T02:50:04;9.50;;;3.70;;
81930;SDS011;71395;43.488;1.472;2024-03-02T02:54:58;6.30;;;2.97;;
81930;SDS011;71395;43.488;1.472;2024-03-02T02:57:24;7.22;;;2.97;;
81930;SDS011;71395;43.488;1.472;2024-03-02T02:59:50;7.43;;;3.40;;
81930;SDS011;71395;43.488;1.472;2024-03-02T03:02:16;6.50;;;3.35;;
81930;SDS011;71395;43.488;1.472;2024-03-02T03:04:41;5.55;;;3.30;;
81930;SDS011;71395;43.488;1.472;2024-03-02T03:07:07;10.25;;;3.33;;
81930;SDS011;71395;43.488;1.472;2024-03-02T03:09:33;7.68;;;3.22;;
81930;SDS011;71395;43.488;1.472;2024-03-02T03:12:02;7.32;;;3.20;;
81930;SDS011;71395;43.488;1.472;2024-03-02T03:14:28;5.85;;;3.05;;
81930;SDS011;71395;43.488;1.472;2024-03-02T03:16:53;8.57;;;2.75;;
81930;SDS011;71395;43.488;1.472;2024-03-02T03:19:19;9.27;;;2.88;;
81930;SDS011;71395;43.488;1.472;2024-03-02T03:21:45;6.18;;;2.92;;
81930;SDS011;71395;43.488;1.472;2024-03-02T03:24:10;6.57;;;2.88;;
81930;SDS011;71395;43.488;1.472;2024-03-02T03:26:36;4.90;;;2.47;;
81930;SDS011;71395;43.488;1.472;2024-03-02T03:29:02;4.82;;;2.45;;
81930;SDS011;71395;43.488;1.472;2024-03-02T03:31:28;4.13;;;2.40;;
81930;SDS011;71395;43.488;1.472;2024-03-02T03:33:54;5.90;;;2.67;;
81930;SDS011;71395;43.488;1.472;2024-03-02T03:36:20;4.95;;;2.40;;
81930;SDS011;71395;43.488;1.472;2024-03-02T03:38:46;5.95;;;2.50;;
81930;SDS011;71395;43.488;1.472;2024-03-02T03:41:11;6.55;;;2.28;;
81930;SDS011;71395;43.488;1.472;2024-03-02T03:43:37;5.88;;;2.50;;
81930;SDS011;71395;43.488;1.472;2024-03-02T03:46:03;6.43;;;2.63;;
81930;SDS011;71395;43.488;1.472;2024-03-02T03:48:28;8.82;;;2.58;;
81930;SDS011;71395;43.488;1.472;2024-03-02T03:50:56;4.78;;;2.22;;
81930;SDS011;71395;43.488;1.472;2024-03-02T03:53:22;4.38;;;2.17;;
81930;SDS011;71395;43.488;1.472;2024-03-02T03:55:49;6.40;;;2.00;;
81930;SDS011;71395;43.488;1.472;2024-03-02T03:58:15;7.97;;;2.28;;
81930;SDS011;71395;43.488;1.472;2024-03-02T04:00:42;5.43;;;2.30;;
81930;SDS011;71395;43.488;1.472;2024-03-02T04:03:08;4.32;;;2.25;;
81930;SDS011;71395;43.488;1.472;2024-03-02T04:05:34;4.60;;;2.22;;
81930;SDS011;71395;43.488;1.472;2024-03-02T04:07:59;3.65;;;1.90;;
81930;SDS011;71395;43.488;1.472;2024-03-02T04:10:26;5.55;;;2.10;;
81930;SDS011;71395;43.488;1.472;2024-03-02T04:12:51;5.05;;;2.25;;
81930;SDS011;71395;43.488;1.472;2024-03-02T04:15:17;5.38;;;2.05;;
81930;SDS011;71395;43.488;1.472;2024-03-02T04:17:44;5.50;;;2.25;;
81930;SDS011;71395;43.488;1.472;2024-03-02T04:20:10;4.45;;;2.40;;
81930;SDS011;71395;43.488;1.472;2024-03-02T04:22:37;5.32;;;2.25;;
81930;SDS011;71395;43.488;1.472;2024-03-02T04:25:03;5.80;;;2.13;;
81930;SDS011;71395;43.488;1.472;2024-03-02T04:27:32;6.38;;;2.35;;
81930;SDS011;71395;43.488;1.472;2024-03-02T04:29:58;4.63;;;1.88;;
81930;SDS011;71395;43.488;1.472;2024-03-02T04:32:25;4.28;;;2.10;;
81930;SDS011;71395;43.488;1.472;2024-03-02T04:34:52;7.05;;;2.30;;
81930;SDS011;71395;43.488;1.472;2024-03-02T04:37:17;3.88;;;1.95;;
81930;SDS011;71395;43.488;1.472;2024-03-02T04:39:43;5.18;;;2.10;;
81930;SDS011;71395;43.488;1.472;2024-03-02T04:42:09;3.90;;;1.77;;
81930;SDS011;71395;43.488;1.472;2024-03-02T04:44:35;5.68;;;2.08;;
81930;SDS011;71395;43.488;1.472;2024-03-02T04:47:00;6.05;;;2.22;;
81930;SDS011;71395;43.488;1.472;2024-03-02T04:49:26;5.72;;;2.40;;
81930;SDS011;71395;43.488;1.472;2024-03-02T04:51:52;6.80;;;2.20;;
81930;SDS011;71395;43.488;1.472;2024-03-02T04:54:17;4.40;;;1.90;;
81930;SDS011;71395;43.488;1.472;2024-03-02T04:56:43;6.15;;;2.05;;
81930;SDS011;71395;43.488;1.472;2024-03-02T04:59:15;3.03;;;1.60;;
81930;SDS011;71395;43.488;1.472;2024-03-02T05:01:42;3.97;;;1.92;;
81930;SDS011;71395;43.488;1.472;2024-03-02T05:04:08;4.25;;;1.83;;
81930;SDS011;71395;43.488;1.472;2024-03-02T05:06:37;5.68;;;2.08;;
81930;SDS011;71395;43.488;1.472;2024-03-02T05:09:04;7.38;;;2.25;;
81930;SDS011;71395;43.488;1.472;2024-03-02T05:11:30;5.03;;;2.10;;
81930;SDS011;71395;43.488;1.472;2024-03-02T05:14:02;7.95;;;2.22;;
81930;SDS011;71395;43.488;1.472;2024-03-02T05:16:28;5.43;;;2.08;;
81930;SDS011;71395;43.488;1.472;2024-03-02T05:18:53;4.10;;;1.90;;
81930;SDS011;71395;43.488;1.472;2024-03-02T05:21:19;5.38;;;2.13;;
81930;SDS011;71395;43.488;1.472;2024-03-02T05:23:45;4.80;;;2.10;;
81930;SDS011;71395;43.488;1.472;2024-03-02T05:26:11;5.40;;;2.40;;
81930;SDS011;71395;43.488;1.472;2024-03-02T05:28:39;5.05;;;2.35;;
81930;SDS011;71395;43.488;1.472;2024-03-02T05:31:05;4.68;;;2.03;;
81930;SDS011;71395;43.488;1.472;2024-03-02T05:33:31;4.93;;;2.10;;
81930;SDS011;71395;43.488;1.472;2024-03-02T05:35:58;5.13;;;2.20;;
81930;SDS011;71395;43.488;1.472;2024-03-02T05:38:24;4.47;;;2.17;;
81930;SDS011;71395;43.488;1.472;2024-03-02T05:40:50;5.07;;;2.28;;
81930;SDS011;71395;43.488;1.472;2024-03-02T05:43:15;4.65;;;2.17;;
81930;SDS011;71395;43.488;1.472;2024-03-02T05:45:41;6.20;;;2.22;;
81930;SDS011;71395;43.488;1.472;2024-03-02T05:48:07;4.82;;;2.30;;
81930;SDS011;71395;43.488;1.472;2024-03-02T05:50:34;5.40;;;2.22;;
81930;SDS011;71395;43.488;1.472;2024-03-02T05:53:00;5.07;;;2.25;;
81930;SDS011;71395;43.488;1.472;2024-03-02T05:55:25;6.97;;;2.30;;
81930;SDS011;71395;43.488;1.472;2024-03-02T05:57:51;6.05;;;2.35;;
81930;SDS011;71395;43.488;1.472;2024-03-02T06:00:32;6.55;;;2.10;;
81930;SDS011;71395;43.488;1.472;2024-03-02T06:02:58;6.88;;;2.30;;
81930;SDS011;71395;43.488;1.472;2024-03-02T06:05:24;6.15;;;2.63;;
81930;SDS011;71395;43.488;1.472;2024-03-02T06:07:50;4.70;;;2.38;;
81930;SDS011;71395;43.488;1.472;2024-03-02T06:10:16;5.93;;;2.38;;
81930;SDS011;71395;43.488;1.472;2024-03-02T06:12:42;7.20;;;2.65;;
81930;SDS011;71395;43.488;1.472;2024-03-02T06:15:08;5.22;;;2.75;;
81930;SDS011;71395;43.488;1.472;2024-03-02T06:17:35;4.95;;;1.90;;
81930;SDS011;71395;43.488;1.472;2024-03-02T06:20:01;5.57;;;2.95;;
81930;SDS011;71395;43.488;1.472;2024-03-02T06:22:27;5.93;;;2.90;;
81930;SDS011;71395;43.488;1.472;2024-03-02T06:24:52;8.25;;;3.22;;
81930;SDS011;71395;43.488;1.472;2024-03-02T06:27:18;8.95;;;3.90;;
81930;SDS011;71395;43.488;1.472;2024-03-02T06:29:44;9.57;;;4.57;;
81930;SDS011;71395;43.488;1.472;2024-03-02T06:32:09;14.52;;;6.07;;
81930;SDS011;71395;43.488;1.472;2024-03-02T06:34:35;10.40;;;5.05;;
81930;SDS011;71395;43.488;1.472;2024-03-02T06:37:01;11.00;;;4.85;;
81930;SDS011;71395;43.488;1.472;2024-03-02T06:39:27;10.45;;;5.00;;
81930;SDS011;71395;43.488;1.472;2024-03-02T06:41:53;7.93;;;4.35;;
81930;SDS011;71395;43.488;1.472;2024-03-02T06:44:18;10.73;;;4.93;;
81930;SDS011;71395;43.488;1.472;2024-03-02T06:46:44;14.55;;;5.43;;
81930;SDS011;71395;43.488;1.472;2024-03-02T06:49:10;7.60;;;4.38;;
81930;SDS011;71395;43.488;1.472;2024-03-02T06:51:36;10.20;;;4.63;;
81930;SDS011;71395;43.488;1.472;2024-03-02T06:54:01;9.63;;;4.57;;
81930;SDS011;71395;43.488;1.472;2024-03-02T06:56:27;7.80;;;4.53;;
81930;SDS011;71395;43.488;1.472;2024-03-02T06:58:53;7.53;;;4.57;;
81930;SDS011;71395;43.488;1.472;2024-03-02T07:01:19;10.55;;;4.82;;
81930;SDS011;71395;43.488;1.472;2024-03-02T07:03:47;8.38;;;5.18;;
81930;SDS011;71395;43.488;1.472;2024-03-02T07:06:13;9.25;;;4.78;;
81930;SDS011;71395;43.488;1.472;2024-03-02T07:08:39;10.77;;;4.85;;
81930;SDS011;71395;43.488;1.472;2024-03-02T07:11:04;9.35;;;4.70;;
81930;SDS011;71395;43.488;1.472;2024-03-02T07:13:30;9.32;;;5.13;;
81930;SDS011;71395;43.488;1.472;2024-03-02T07:15:56;16.83;;;7.38;;
81930;SDS011;71395;43.488;1.472;2024-03-02T07:18:27;71.53;;;18.00;;
81930;SDS011;71395;43.488;1.472;2024-03-02T07:20:53;31.15;;;9.07;;
81930;SDS011;71395;43.488;1.472;2024-03-02T07:23:20;12.02;;;4.75;;
81930;SDS011;71395;43.488;1.472;2024-03-02T07:25:49;35.13;;;10.70;;
81930;SDS011;71395;43.488;1.472;2024-03-02T07:28:15;22.77;;;7.53;;
81930;SDS011;71395;43.488;1.472;2024-03-02T07:30:41;12.95;;;4.32;;
81930;SDS011;71395;43.488;1.472;2024-03-02T07:33:07;17.83;;;5.95;;
81930;SDS011;71395;43.488;1.472;2024-03-02T07:35:32;9.07;;;3.55;;
81930;SDS011;71395;43.488;1.472;2024-03-02T07:37:58;6.30;;;2.70;;
81930;SDS011;71395;43.488;1.472;2024-03-02T07:40:24;6.00;;;2.92;;
81930;SDS011;71395;43.488;1.472;2024-03-02T07:42:50;6.65;;;2.85;;
81930;SDS011;71395;43.488;1.472;2024-03-02T07:45:16;6.25;;;2.67;;
81930;SDS011;71395;43.488;1.472;2024-03-02T07:47:42;5.47;;;2.28;;
81930;SDS011;71395;43.488;1.472;2024-03-02T07:50:07;6.82;;;3.13;;
81930;SDS011;71395;43.488;1.472;2024-03-02T07:52:34;6.72;;;3.10;;
81930;SDS011;71395;43.488;1.472;2024-03-02T07:55:00;6.70;;;3.38;;
81930;SDS011;71395;43.488;1.472;2024-03-02T07:57:25;8.27;;;3.90;;
81930;SDS011;71395;43.488;1.472;2024-03-02T07:59:51;7.57;;;3.50;;
81930;SDS011;71395;43.488;1.472;2024-03-02T08:02:17;7.45;;;3.60;;
81930;SDS011;71395;43.488;1.472;2024-03-02T08:04:43;7.03;;;3.05;;
81930;SDS011;71395;43.488;1.472;2024-03-02T08:07:10;6.50;;;2.83;;
81930;SDS011;71395;43.488;1.472;2024-03-02T08:09:36;7.45;;;2.67;;
81930;SDS011;71395;43.488;1.472;2024-03-02T08:12:02;7.80;;;3.05;;
81930;SDS011;71395;43.488;1.472;2024-03-02T08:14:28;5.05;;;2.67;;
81930;SDS011;71395;43.488;1.472;2024-03-02T08:16:54;7.25;;;2.70;;
81930;SDS011;71395;43.488;1.472;2024-03-02T08:19:22;5.60;;;2.58;;
81930;SDS011;71395;43.488;1.472;2024-03-02T08:21:48;7.97;;;2.35;;
81930;SDS011;71395;43.488;1.472;2024-03-02T08:24:15;6.63;;;2.60;;
81930;SDS011;71395;43.488;1.472;2024-03-02T08:26:40;5.93;;;2.58;;
81930;SDS011;71395;43.488;1.472;2024-03-02T08:29:06;7.45;;;2.58;;
81930;SDS011;71395;43.488;1.472;2024-03-02T08:31:32;8.63;;;2.75;;
81930;SDS011;71395;43.488;1.472;2024-03-02T08:33:58;8.32;;;2.50;;
81930;SDS011;71395;43.488;1.472;2024-03-02T08:36:24;6.20;;;2.67;;
81930;SDS011;71395;43.488;1.472;2024-03-02T08:38:49;6.63;;;2.38;;
81930;SDS011;71395;43.488;1.472;2024-03-02T08:41:15;5.97;;;2.38;;
81930;SDS011;71395;43.488;1.472;2024-03-02T08:43:41;5.60;;;2.30;;
81930;SDS011;71395;43.488;1.472;2024-03-02T08:46:07;5.30;;;2.10;;
81930;SDS011;71395;43.488;1.472;2024-03-02T08:48:34;6.63;;;2.10;;
81930;SDS011;71395;43.488;1.472;2024-03-02T08:51:01;4.55;;;2.47;;
81930;SDS011;71395;43.488;1.472;2024-03-02T08:53:29;5.88;;;2.50;;
81930;SDS011;71395;43.488;1.472;2024-03-02T08:55:55;5.47;;;2.13;;
81930;SDS011;71395;43.488;1.472;2024-03-02T08:58:21;7.88;;;2.47;;
81930;SDS011;71395;43.488;1.472;2024-03-02T09:00:47;7.60;;;2.58;;
81930;SDS011;71395;43.488;1.472;2024-03-02T09:03:13;4.47;;;2.17;;
81930;SDS011;71395;43.488;1.472;2024-03-02T09:05:39;6.32;;;2.60;;
81930;SDS011;71395;43.488;1.472;2024-03-02T09:08:05;6.88;;;2.40;;
81930;SDS011;71395;43.488;1.472;2024-03-02T09:10:31;6.70;;;2.30;;
81930;SDS011;71395;43.488;1.472;2024-03-02T09:12:58;4.43;;;2.28;;
81930;SDS011;71395;43.488;1.472;2024-03-02T09:15:24;7.38;;;2.85;;
81930;SDS011;71395;43.488;1.472;2024-03-02T09:17:50;6.40;;;2.67;;
81930;SDS011;71395;43.488;1.472;2024-03-02T09:20:16;6.63;;;2.55;;
81930;SDS011;71395;43.488;1.472;2024-03-02T09:22:42;6.38;;;2.72;;
81930;SDS011;71395;43.488;1.472;2024-03-02T09:25:08;7.10;;;2.80;;
81930;SDS011;71395;43.488;1.472;2024-03-02T09:27:38;10.80;;;2.90;;
81930;SDS011;71395;43.488;1.472;2024-03-02T09:30:07;6.25;;;2.33;;
81930;SDS011;71395;43.488;1.472;2024-03-02T09:32:33;10.48;;;3.03;;
81930;SDS011;71395;43.488;1.472;2024-03-02T09:34:59;8.13;;;2.83;;
81930;SDS011;71395;43.488;1.472;2024-03-02T09:37:26;5.63;;;2.90;;
81930;SDS011;71395;43.488;1.472;2024-03-02T09:39:52;8.43;;;2.55;;
81930;SDS011;71395;43.488;1.472;2024-03-02T09:42:17;6.65;;;2.78;;
81930;SDS011;71395;43.488;1.472;2024-03-02T09:44:44;8.05;;;2.60;;
81930;SDS011;71395;43.488;1.472;2024-03-02T09:47:10;9.27;;;3.10;;
81930;SDS011;71395;43.488;1.472;2024-03-02T09:49:36;11.88;;;3.03;;
81930;SDS011;71395;43.488;1.472;2024-03-02T09:52:02;8.23;;;2.95;;
81930;SDS011;71395;43.488;1.472;2024-03-02T09:54:30;7.72;;;2.65;;
81930;SDS011;71395;43.488;1.472;2024-03-02T09:56:56;12.30;;;2.80;;
81930;SDS011;71395;43.488;1.472;2024-03-02T09:59:21;11.35;;;3.00;;
81930;SDS011;71395;43.488;1.472;2024-03-02T10:01:57;7.72;;;2.58;;
81930;SDS011;71395;43.488;1.472;2024-03-02T10:04:25;11.38;;;3.10;;
81930;SDS011;71395;43.488;1.472;2024-03-02T10:06:52;13.40;;;3.30;;
81930;SDS011;71395;43.488;1.472;2024-03-02T10:09:34;9.95;;;2.80;;
81930;SDS011;71395;43.488;1.472;2024-03-02T10:12:06;9.20;;;2.70;;
81930;SDS011;71395;43.488;1.472;2024-03-02T10:14:34;7.93;;;2.65;;
81930;SDS011;71395;43.488;1.472;2024-03-02T10:17:03;11.00;;;2.83;;
81930;SDS011;71395;43.488;1.472;2024-03-02T10:19:33;9.77;;;2.80;;
81930;SDS011;71395;43.488;1.472;2024-03-02T10:22:06;8.98;;;2.85;;
81930;SDS011;71395;43.488;1.472;2024-03-02T10:27:10;8.52;;;2.67;;
81930;SDS011;71395;43.488;1.472;2024-03-02T10:29:40;12.82;;;3.45;;
81930;SDS011;71395;43.488;1.472;2024-03-02T10:32:09;8.88;;;2.72;;
81930;SDS011;71395;43.488;1.472;2024-03-02T10:34:36;10.07;;;2.97;;
81930;SDS011;71395;43.488;1.472;2024-03-02T10:37:05;11.10;;;3.20;;
81930;SDS011;71395;43.488;1.472;2024-03-02T10:39:32;11.43;;;3.28;;
81930;SDS011;71395;43.488;1.472;2024-03-02T10:42:02;9.05;;;2.97;;
81930;SDS011;71395;43.488;1.472;2024-03-02T10:44:28;13.05;;;2.80;;
81930;SDS011;71395;43.488;1.472;2024-03-02T10:46:56;12.27;;;2.78;;
81930;SDS011;71395;43.488;1.472;2024-03-02T10:49:25;10.23;;;3.10;;
81930;SDS011;71395;43.488;1.472;2024-03-02T10:51:52;10.95;;;3.50;;
81930;SDS011;71395;43.488;1.472;2024-03-02T10:54:18;9.90;;;3.35;;
81930;SDS011;71395;43.488;1.472;2024-03-02T10:56:51;7.68;;;3.03;;
81930;SDS011;71395;43.488;1.472;2024-03-02T11:01:58;7.88;;;2.88;;
81930;SDS011;71395;43.488;1.472;2024-03-02T11:04:26;7.00;;;2.67;;
81930;SDS011;71395;43.488;1.472;2024-03-02T11:07:04;8.68;;;3.35;;
81930;SDS011;71395;43.488;1.472;2024-03-02T11:09:33;8.75;;;2.72;;
81930;SDS011;71395;43.488;1.472;2024-03-02T11:14:25;11.13;;;3.13;;
81930;SDS011;71395;43.488;1.472;2024-03-02T11:16:51;13.18;;;3.20;;
81930;SDS011;71395;43.488;1.472;2024-03-02T11:19:17;7.82;;;2.47;;
81930;SDS011;71395;43.488;1.472;2024-03-02T11:21:43;8.25;;;2.75;;
81930;SDS011;71395;43.488;1.472;2024-03-02T11:26:52;9.05;;;2.60;;
81930;SDS011;71395;43.488;1.472;2024-03-02T11:32:05;7.32;;;2.17;;
81930;SDS011;71395;43.488;1.472;2024-03-02T11:34:39;8.00;;;2.60;;
81930;SDS011;71395;43.488;1.472;2024-03-02T11:37:10;8.88;;;1.95;;
81930;SDS011;71395;43.488;1.472;2024-03-02T11:39:37;9.63;;;2.45;;
81930;SDS011;71395;43.488;1.472;2024-03-02T11:42:07;7.15;;;2.28;;
81930;SDS011;71395;43.488;1.472;2024-03-02T11:47:01;10.73;;;2.85;;
81930;SDS011;71395;43.488;1.472;2024-03-02T11:49:48;7.32;;;2.67;;
81930;SDS011;71395;43.488;1.472;2024-03-02T11:52:16;9.48;;;2.63;;
81930;SDS011;71395;43.488;1.472;2024-03-02T11:54:44;9.90;;;2.58;;
81930;SDS011;71395;43.488;1.472;2024-03-02T11:57:15;10.00;;;3.17;;
81930;SDS011;71395;43.488;1.472;2024-03-02T11:59:42;8.63;;;2.80;;
81930;SDS011;71395;43.488;1.472;2024-03-02T12:02:15;7.60;;;2.90;;
81930;SDS011;71395;43.488;1.472;2024-03-02T12:04:43;12.23;;;3.75;;
81930;SDS011;71395;43.488;1.472;2024-03-02T12:07:10;16.73;;;4.35;;
81930;SDS011;71395;43.488;1.472;2024-03-02T12:09:36;11.18;;;2.97;;
81930;SDS011;71395;43.488;1.472;2024-03-02T12:12:05;9.35;;;2.53;;
81930;SDS011;71395;43.488;1.472;2024-03-02T12:14:32;8.00;;;2.75;;
81930;SDS011;71395;43.488;1.472;2024-03-02T12:16:59;7.68;;;2.80;;
81930;SDS011;71395;43.488;1.472;2024-03-02T12:19:25;9.60;;;2.70;;
81930;SDS011;71395;43.488;1.472;2024-03-02T12:21:52;8.57;;;3.28;;
81930;SDS011;71395;43.488;1.472;2024-03-02T12:24:20;10.85;;;2.95;;
81930;SDS011;71395;43.488;1.472;2024-03-02T12:26:48;8.05;;;2.90;;
81930;SDS011;71395;43.488;1.472;2024-03-02T12:29:16;13.40;;;3.75;;
81930;SDS011;71395;43.488;1.472;2024-03-02T12:31:44;8.15;;;3.05;;
81930;SDS011;71395;43.488;1.472;2024-03-02T12:34:13;10.13;;;2.90;;
81930;SDS011;71395;43.488;1.472;2024-03-02T12:36:40;8.40;;;3.08;;
81930;SDS011;71395;43.488;1.472;2024-03-02T12:39:10;11.50;;;3.20;;
81930;SDS011;71395;43.488;1.472;2024-03-02T12:41:36;7.65;;;2.97;;
81930;SDS011;71395;43.488;1.472;2024-03-02T12:44:06;6.78;;;2.85;;
81930;SDS011;71395;43.488;1.472;2024-03-02T12:46:32;8.02;;;2.65;;
81930;SDS011;71395;43.488;1.472;2024-03-02T12:48:58;6.93;;;2.17;;
81930;SDS011;71395;43.488;1.472;2024-03-02T12:51:30;10.98;;;2.67;;
81930;SDS011;71395;43.488;1.472;2024-03-02T12:53:59;8.32;;;2.67;;
81930;SDS011;71395;43.488;1.472;2024-03-02T12:56:26;9.18;;;2.28;;
81930;SDS011;71395;43.488;1.472;2024-03-02T12:58:55;7.25;;;2.30;;
81930;SDS011;71395;43.488;1.472;2024-03-02T13:01:22;9.10;;;2.30;;
81930;SDS011;71395;43.488;1.472;2024-03-02T13:03:55;7.13;;;2.63;;
81930;SDS011;71395;43.488;1.472;2024-03-02T13:06:22;6.85;;;2.25;;
81930;SDS011;71395;43.488;1.472;2024-03-02T13:08:48;7.00;;;2.40;;
81930;SDS011;71395;43.488;1.472;2024-03-02T13:11:15;7.68;;;2.78;;
81930;SDS011;71395;43.488;1.472;2024-03-02T13:13:41;7.55;;;2.50;;
81930;SDS011;71395;43.488;1.472;2024-03-02T13:16:11;9.88;;;3.33;;
81930;SDS011;71395;43.488;1.472;2024-03-02T13:18:41;8.45;;;2.60;;
81930;SDS011;71395;43.488;1.472;2024-03-02T13:21:08;6.95;;;2.40;;
81930;SDS011;71395;43.488;1.472;2024-03-02T13:23:34;7.53;;;2.45;;
81930;SDS011;71395;43.488;1.472;2024-03-02T13:26:00;5.70;;;2.40;;
81930;SDS011;71395;43.488;1.472;2024-03-02T13:28:26;7.90;;;2.53;;
81930;SDS011;71395;43.488;1.472;2024-03-02T13:30:52;7.93;;;2.80;;
81930;SDS011;71395;43.488;1.472;2024-03-02T13:33:18;8.15;;;2.20;;
81930;SDS011;71395;43.488;1.472;2024-03-02T13:35:50;7.65;;;2.33;;
81930;SDS011;71395;43.488;1.472;2024-03-02T13:38:18;6.00;;;2.22;;
81930;SDS011;71395;43.488;1.472;2024-03-02T13:40:45;7.78;;;2.40;;
81930;SDS011;71395;43.488;1.472;2024-03-02T13:43:12;5.80;;;2.38;;
81930;SDS011;71395;43.488;1.472;2024-03-02T13:45:39;6.15;;;2.20;;
81930;SDS011;71395;43.488;1.472;2024-03-02T13:48:05;6.90;;;2.40;;
81930;SDS011;71395;43.488;1.472;2024-03-02T13:50:31;8.02;;;2.40;;
81930;SDS011;71395;43.488;1.472;2024-03-02T13:52:57;8.80;;;2.60;;
81930;SDS011;71395;43.488;1.472;2024-03-02T13:55:23;6.15;;;2.20;;
81930;SDS011;71395;43.488;1.472;2024-03-02T13:57:49;8.07;;;2.30;;
81930;SDS011;71395;43.488;1.472;2024-03-02T14:00:16;7.95;;;2.63;;
81930;SDS011;71395;43.488;1.472;2024-03-02T14:02:42;6.28;;;2.17;;
81930;SDS011;71395;43.488;1.472;2024-03-02T14:05:09;6.97;;;3.15;;
81930;SDS011;71395;43.488;1.472;2024-03-02T14:07:39;6.30;;;2.47;;
81930;SDS011;71395;43.488;1.472;2024-03-02T14:10:05;6.65;;;2.60;;
81930;SDS011;71395;43.488;1.472;2024-03-02T14:12:32;7.00;;;2.45;;
81930;SDS011;71395;43.488;1.472;2024-03-02T14:14:58;7.97;;;2.17;;
81930;SDS011;71395;43.488;1.472;2024-03-02T14:17:26;7.55;;;2.30;;
81930;SDS011;71395;43.488;1.472;2024-03-02T14:19:52;14.18;;;5.38;;
81930;SDS011;71395;43.488;1.472;2024-03-02T14:22:19;9.13;;;2.85;;
81930;SDS011;71395;43.488;1.472;2024-03-02T14:24:45;6.57;;;2.28;;
81930;SDS011;71395;43.488;1.472;2024-03-02T14:27:13;10.00;;;2.60;;
81930;SDS011;71395;43.488;1.472;2024-03-02T14:29:39;13.98;;;4.82;;
81930;SDS011;71395;43.488;1.472;2024-03-02T14:32:06;8.57;;;2.72;;
81930;SDS011;71395;43.488;1.472;2024-03-02T14:34:32;12.80;;;4.10;;
81930;SDS011;71395;43.488;1.472;2024-03-02T14:36:59;9.43;;;2.60;;
81930;SDS011;71395;43.488;1.472;2024-03-02T14:39:25;7.25;;;2.20;;
81930;SDS011;71395;43.488;1.472;2024-03-02T14:41:52;9.07;;;2.33;;
81930;SDS011;71395;43.488;1.472;2024-03-02T14:44:18;6.60;;;2.28;;
81930;SDS011;71395;43.488;1.472;2024-03-02T14:46:46;8.25;;;2.28;;
81930;SDS011;71395;43.488;1.472;2024-03-02T14:49:13;7.28;;;2.30;;
81930;SDS011;71395;43.488;1.472;2024-03-02T14:51:39;9.70;;;2.70;;
81930;SDS011;71395;43.488;1.472;2024-03-02T14:54:04;12.15;;;2.67;;
81930;SDS011;71395;43.488;1.472;2024-03-02T14:56:30;7.75;;;2.13;;
81930;SDS011;71395;43.488;1.472;2024-03-02T14:58:56;9.00;;;3.00;;
81930;SDS011;71395;43.488;1.472;2024-03-02T15:01:23;9.02;;;2.92;;
81930;SDS011;71395;43.488;1.472;2024-03-02T15:03:53;7.43;;;2.42;;